createdAt,value
2024-03-29T00:02:47.110Z,97400.32
2024-03-29T00:07:50.112Z,97419.88
2024-03-29T00:12:53.117Z,97423.23
2024-03-29T00:17:56.442Z,97427.92
2024-03-29T00:22:59.574Z,97434.41
2024-03-29T00:28:04.720Z,97437.13
2024-03-29T00:33:07.573Z,97452.00
2024-03-29T00:38:10.497Z,97459.98
2024-03-29T00:43:13.592Z,97471.84
2024-03-29T00:48:18.778Z,97483.75
2024-03-29T00:53:21.758Z,97495.47
2024-03-29T00:58:24.971Z,97503.64
2024-03-29T01:03:29.911Z,97513.87
2024-03-29T01:08:33.227Z,97533.95
2024-03-29T01:13:36.238Z,97551.98
2024-03-29T01:18:40.060Z,97559.73
2024-03-29T01:23:43.080Z,97568.37
2024-03-29T01:28:46.104Z,97572.26
2024-03-29T01:33:49.038Z,97574.70
2024-03-29T01:38:55.832Z,97572.36
2024-03-29T01:43:58.947Z,97571.88
2024-03-29T01:49:03.164Z,97591.33
2024-03-29T01:54:06.287Z,97606.50
2024-03-29T01:59:16.251Z,97616.30
2024-03-29T02:04:19.572Z,97638.72
2024-03-29T02:09:22.548Z,97652.83
2024-03-29T02:14:25.591Z,97673.70
2024-03-29T02:19:28.469Z,97691.38
2024-03-29T02:24:31.413Z,97706.95
2024-03-29T02:29:37.020Z,97721.48
2024-03-29T02:34:40.088Z,97738.17
2024-03-29T02:39:43.212Z,97745.42
2024-03-29T02:44:47.710Z,97759.14
2024-03-29T02:49:50.715Z,97769.20
2024-03-29T02:54:53.671Z,97766.96
2024-03-29T02:59:56.861Z,97760.80
2024-03-29T03:05:01.942Z,97772.34
2024-03-29T03:10:23.584Z,97781.87
2024-03-29T03:15:26.484Z,97801.36
2024-03-29T03:20:31.804Z,97820.34
2024-03-29T03:25:35.570Z,97830.25
2024-03-29T03:30:41.674Z,97841.21
2024-03-29T03:35:45.459Z,97855.50
2024-03-29T03:40:48.442Z,97865.23
2024-03-29T03:45:51.571Z,97861.94
2024-03-29T03:50:54.481Z,97851.94
2024-03-29T03:55:57.464Z,97852.46
2024-03-29T04:01:07.882Z,97871.09
2024-03-29T04:06:10.788Z,97872.12
2024-03-29T04:11:13.842Z,97872.02
2024-03-29T04:16:16.754Z,97881.36
2024-03-29T04:21:19.725Z,97874.84
2024-03-29T04:26:23.820Z,97886.68
2024-03-29T04:31:26.697Z,97888.92
2024-03-29T04:36:29.666Z,97892.00
2024-03-29T04:41:35.530Z,97900.46
2024-03-29T04:46:38.454Z,97901.21
2024-03-29T04:51:41.418Z,97899.42
2024-03-29T04:56:44.663Z,97913.00
2024-03-29T05:01:56.443Z,97912.05
2024-03-29T05:06:59.748Z,97911.91
2024-03-29T05:12:02.707Z,97930.83
2024-03-29T05:17:05.650Z,97919.91
2024-03-29T05:22:08.653Z,97906.61
2024-03-29T05:27:12.891Z,97922.98
2024-03-29T05:32:15.806Z,97919.82
2024-03-29T05:37:19.597Z,97931.48
2024-03-29T05:42:22.568Z,97947.14
2024-03-29T05:47:25.515Z,97947.45
2024-03-29T05:52:28.501Z,97958.80
2024-03-29T05:57:33.051Z,97971.09
2024-03-29T06:02:36.472Z,97972.30
2024-03-29T06:07:39.524Z,97973.40
2024-03-29T06:12:42.415Z,97973.04
2024-03-29T06:17:46.923Z,97976.94
2024-03-29T06:22:50.020Z,97984.02
2024-03-29T06:27:53.054Z,97998.05
2024-03-29T06:32:56.188Z,98009.27
2024-03-29T06:37:59.392Z,97998.98
2024-03-29T06:43:04.065Z,97984.95
2024-03-29T06:48:07.570Z,97971.23
2024-03-29T06:53:10.588Z,97973.38
2024-03-29T06:58:13.677Z,97978.58
2024-03-29T07:03:18.142Z,97982.30
2024-03-29T07:08:21.933Z,97981.50
2024-03-29T07:13:24.968Z,97984.10
2024-03-29T07:18:28.561Z,97995.27
2024-03-29T07:23:31.616Z,97994.38
2024-03-29T07:28:34.796Z,97984.15
2024-03-29T07:33:38.801Z,97968.85
2024-03-29T07:38:41.901Z,97957.80
2024-03-29T07:43:57.774Z,97946.35
2024-03-29T07:49:01.186Z,97941.46
2024-03-29T07:54:04.294Z,97956.17
2024-03-29T07:59:07.364Z,97973.23
2024-03-29T08:04:10.435Z,97982.83
2024-03-29T08:09:15.159Z,97994.98
2024-03-29T08:14:18.536Z,97993.23
2024-03-29T08:19:24.719Z,97993.15
2024-03-29T08:24:28.886Z,98006.04
2024-03-29T08:29:31.917Z,98014.36
2024-03-29T08:34:35.913Z,98011.30
2024-03-29T08:39:39.161Z,98014.80
2024-03-29T08:44:44.688Z,98007.43
2024-03-29T08:49:48.013Z,98017.62
2024-03-29T08:54:51.029Z,98021.59
2024-03-29T08:59:54.543Z,98018.38
2024-03-29T09:04:59.317Z,98021.41
2024-03-29T09:10:02.285Z,98031.84
2024-03-29T09:15:09.943Z,98033.59
2024-03-29T09:20:13.544Z,98038.33
2024-03-29T09:25:16.743Z,98042.76
2024-03-29T09:30:20.902Z,98038.95
2024-03-29T09:35:23.995Z,98035.38
2024-03-29T09:40:28.335Z,98030.77
2024-03-29T09:45:36.008Z,98028.38
2024-03-29T09:50:39.404Z,98033.07
2024-03-29T09:55:42.597Z,98042.30
2024-03-29T10:00:46.268Z,98038.11
2024-03-29T10:05:49.502Z,98038.88
2024-03-29T10:10:53.183Z,98028.84
2024-03-29T10:15:57.405Z,98025.70
2024-03-29T10:21:04.391Z,98025.22
2024-03-29T10:26:08.179Z,98022.70
2024-03-29T10:31:12.797Z,98023.11
2024-03-29T10:36:15.842Z,98021.71
2024-03-29T10:41:19.244Z,98022.83
2024-03-29T10:46:23.081Z,98010.59
2024-03-29T10:51:26.174Z,98005.84
2024-03-29T10:56:30.341Z,98001.63
2024-03-29T11:01:34.388Z,98001.10
2024-03-29T11:06:39.276Z,97991.80
2024-03-29T11:11:49.516Z,97972.06
2024-03-29T11:16:57.377Z,97957.73
2024-03-29T11:22:01.584Z,97948.40
2024-03-29T11:27:11.899Z,97943.24
2024-03-29T11:32:15.942Z,97933.31
2024-03-29T11:37:19.536Z,97929.62
2024-03-29T11:42:46.776Z,97920.05
2024-03-29T11:47:50.974Z,97927.55
2024-03-29T11:52:54.304Z,97918.94
2024-03-29T11:57:57.153Z,97913.86
2024-03-29T12:03:00.201Z,97909.73
2024-03-29T12:08:04.309Z,97903.63
2024-03-29T12:13:07.747Z,97884.05
2024-03-29T12:18:12.417Z,97867.91
2024-03-29T12:23:15.444Z,97862.62
2024-03-29T12:28:18.558Z,97853.66
2024-03-29T12:33:22.809Z,97852.99
2024-03-29T12:38:26.178Z,97849.71
2024-03-29T12:43:29.606Z,97841.48
2024-03-29T12:48:35.028Z,97839.91
2024-03-29T12:53:40.241Z,97845.02
2024-03-29T12:58:43.792Z,97850.13
2024-03-29T13:03:46.820Z,97847.58
2024-03-29T13:08:51.014Z,97833.06
2024-03-29T13:13:54.606Z,97815.11
2024-03-29T13:18:57.790Z,97818.33
2024-03-29T13:24:00.856Z,97821.36
2024-03-29T13:29:04.097Z,97815.17
2024-03-29T13:34:13.287Z,97813.79
2024-03-29T13:39:17.354Z,97818.60
2024-03-29T13:44:20.699Z,97826.44
2024-03-29T13:49:24.106Z,97829.17
2024-03-29T13:54:27.029Z,97832.80
2024-03-29T13:59:30.252Z,97821.46
2024-03-29T14:04:33.264Z,97825.29
2024-03-29T14:09:37.175Z,97819.33
2024-03-29T14:14:40.652Z,97819.98
2024-03-29T14:19:43.579Z,97810.98
2024-03-29T14:24:46.630Z,97816.17
2024-03-29T14:29:49.651Z,97815.86
2024-03-29T14:34:53.724Z,97824.05
2024-03-29T14:39:56.747Z,97827.37
2024-03-29T14:44:59.866Z,97824.09
2024-03-29T14:50:05.964Z,97827.02
2024-03-29T14:55:09.159Z,97831.51
2024-03-29T15:00:12.600Z,97841.67
2024-03-29T15:05:15.605Z,97852.83
2024-03-29T15:10:20.328Z,97864.89
2024-03-29T15:15:23.384Z,97866.41
2024-03-29T15:20:26.446Z,97869.36
2024-03-29T15:25:29.566Z,97864.95
2024-03-29T15:30:36.196Z,97856.75
2024-03-29T15:35:39.538Z,97855.85
2024-03-29T15:40:42.721Z,97847.86
2024-03-29T15:45:46.166Z,97853.89
2024-03-29T15:50:49.231Z,97854.46
2024-03-29T15:55:52.707Z,97853.13
2024-03-29T16:00:56.866Z,97850.25
2024-03-29T16:05:59.864Z,97845.04
2024-03-29T16:11:09.220Z,97841.43
2024-03-29T16:16:12.532Z,97834.43
2024-03-29T16:21:15.757Z,97839.97
2024-03-29T16:26:18.867Z,97844.27
2024-03-29T16:31:21.889Z,97847.02
2024-03-29T16:36:25.219Z,97853.98
2024-03-29T16:41:28.621Z,97855.61
2024-03-29T16:46:31.599Z,97854.18
2024-03-29T16:51:34.548Z,97855.36
2024-03-29T16:56:37.692Z,97857.75
2024-03-29T17:01:40.622Z,97855.36
2024-03-29T17:06:43.593Z,97853.34
2024-03-29T17:11:46.593Z,97855.91
2024-03-29T17:16:51.309Z,97852.59
2024-03-29T17:21:54.950Z,97841.86
2024-03-29T17:26:59.242Z,97837.95
2024-03-29T17:32:11.191Z,97835.34
2024-03-29T17:37:16.492Z,97842.30
2024-03-29T17:42:19.666Z,97845.23
2024-03-29T17:47:23.422Z,97846.52
2024-03-29T17:52:26.379Z,97853.05
2024-03-29T17:57:29.331Z,97849.85
2024-03-29T18:02:32.250Z,97857.20
2024-03-29T18:07:35.328Z,97857.61
2024-03-29T18:12:38.444Z,97858.73
2024-03-29T18:17:41.649Z,97869.76
2024-03-29T18:22:44.564Z,97872.62
2024-03-29T18:27:47.529Z,97875.33
2024-03-29T18:32:50.414Z,97878.97
2024-03-29T18:37:53.428Z,97875.67
2024-03-29T18:42:57.849Z,97879.97
2024-03-29T18:48:00.827Z,97878.29
2024-03-29T18:53:04.065Z,97878.08
2024-03-29T18:58:06.983Z,97878.59
2024-03-29T19:03:12.250Z,97873.73
2024-03-29T19:08:15.390Z,97869.88
2024-03-29T19:13:18.482Z,97860.88
2024-03-29T19:18:21.576Z,97861.13
2024-03-29T19:23:24.651Z,97851.77
2024-03-29T19:28:28.391Z,97846.77
2024-03-29T19:33:31.370Z,97842.27
2024-03-29T19:38:34.424Z,97846.21
2024-03-29T19:43:37.650Z,97848.52
2024-03-29T19:48:40.600Z,97852.14
2024-03-29T19:53:43.599Z,97851.88
2024-03-29T19:58:46.760Z,97856.96
2024-03-29T20:03:49.778Z,97857.73
2024-03-29T20:08:52.722Z,97851.91
2024-03-29T20:13:55.839Z,97860.60
2024-03-29T20:19:02.948Z,97863.08
2024-03-29T20:24:07.090Z,97861.27
2024-03-29T20:29:10.179Z,97861.91
2024-03-29T20:34:13.232Z,97860.39
2024-03-29T20:39:17.331Z,97868.75
2024-03-29T20:44:20.470Z,97862.04
2024-03-29T20:49:23.582Z,97855.70
2024-03-29T20:54:28.687Z,97854.15
2024-03-29T20:59:34.675Z,97854.63
2024-03-29T21:04:55.888Z,97844.80
2024-03-29T21:09:58.758Z,97850.26
2024-03-29T21:15:03.006Z,97847.60
2024-03-29T21:20:10.746Z,97843.06
2024-03-29T21:25:14.069Z,97841.98
2024-03-29T21:30:19.501Z,97840.94
2024-03-29T21:35:24.017Z,97842.34
2024-03-29T21:40:27.605Z,97842.65
2024-03-29T21:45:31.014Z,97841.88
2024-03-29T21:50:33.893Z,97839.41
2024-03-29T21:55:36.897Z,97838.36
2024-03-29T22:00:39.823Z,97848.33
2024-03-29T22:05:43.747Z,97846.60
2024-03-29T22:10:46.754Z,97842.82
2024-03-29T22:15:49.696Z,97837.96
2024-03-29T22:20:53.266Z,97838.23
2024-03-29T22:25:56.200Z,97836.30
2024-03-29T22:30:59.247Z,97838.50
2024-03-29T22:36:02.986Z,97835.80
2024-03-29T22:41:05.901Z,97837.27
2024-03-29T22:46:10.054Z,97822.39
2024-03-29T22:51:13.153Z,97834.48
2024-03-29T22:56:16.053Z,97830.10
2024-03-29T23:01:18.958Z,97835.92
2024-03-29T23:06:22.154Z,97832.45
2024-03-29T23:11:25.095Z,97832.62
2024-03-29T23:16:28.423Z,97829.86
2024-03-29T23:21:31.733Z,97830.86
2024-03-29T23:26:34.906Z,97830.90
2024-03-29T23:31:37.770Z,97830.47
2024-03-29T23:36:40.678Z,97827.48
2024-03-29T23:41:43.538Z,97817.50
2024-03-29T23:46:46.433Z,97815.92
2024-03-29T23:51:49.457Z,97810.95
2024-03-29T23:56:52.380Z,97805.80
